createdAt,value
2023-01-26T00:01:18.716Z,2.62
2023-01-26T00:03:46.567Z,2.58
2023-01-26T00:06:17.086Z,2.58
2023-01-26T00:08:46.427Z,2.44
2023-01-26T00:11:16.247Z,2.65
2023-01-26T00:13:45.314Z,2.51
2023-01-26T00:16:14.662Z,2.46
2023-01-26T00:18:42.859Z,2.54
2023-01-26T00:21:14.333Z,2.48
2023-01-26T00:23:42.245Z,2.55
2023-01-26T00:26:11.738Z,2.49
2023-01-26T00:28:39.132Z,2.30
2023-01-26T00:31:11.389Z,2.39
2023-01-26T00:33:38.838Z,2.36
2023-01-26T00:36:06.880Z,2.45
2023-01-26T00:38:34.842Z,2.54
2023-01-26T00:41:02.156Z,2.61
2023-01-26T00:43:29.942Z,2.51
2023-01-26T00:45:57.373Z,2.44
2023-01-26T00:48:26.276Z,2.58
2023-01-26T00:50:54.438Z,2.52
2023-01-26T00:53:21.877Z,2.28
2023-01-26T00:55:49.359Z,2.54
2023-01-26T00:58:16.836Z,2.44
2023-01-26T01:00:44.301Z,2.62
2023-01-26T01:03:12.344Z,2.54
2023-01-26T01:05:41.000Z,2.34
2023-01-26T01:08:08.458Z,2.38
2023-01-26T01:10:35.919Z,2.28
2023-01-26T01:13:03.710Z,2.46
2023-01-26T01:15:31.234Z,2.51
2023-01-26T01:17:58.606Z,2.52
2023-01-26T01:20:26.032Z,2.51
2023-01-26T01:22:54.755Z,2.25
2023-01-26T01:25:22.141Z,2.24
2023-01-26T01:27:49.594Z,2.31
2023-01-26T01:30:17.038Z,2.25
2023-01-26T01:32:44.895Z,2.36
2023-01-26T01:35:12.366Z,2.53
2023-01-26T01:37:39.813Z,2.23
2023-01-26T01:40:13.125Z,2.26
2023-01-26T01:42:47.694Z,2.37
2023-01-26T01:45:38.763Z,2.40
2023-01-26T01:48:13.391Z,2.23
2023-01-26T01:50:41.425Z,2.40
2023-01-26T01:53:09.959Z,2.40
2023-01-26T01:55:38.751Z,2.40
2023-01-26T01:58:07.961Z,2.36
2023-01-26T02:00:35.533Z,2.37
2023-01-26T02:03:14.623Z,2.26
2023-01-26T02:05:49.986Z,2.28
2023-01-26T02:08:19.176Z,2.31
2023-01-26T02:10:51.136Z,2.15
2023-01-26T02:13:20.526Z,2.16
2023-01-26T02:15:49.035Z,2.34
2023-01-26T02:18:17.582Z,2.27
2023-01-26T02:20:47.794Z,2.23
2023-01-26T02:23:23.246Z,2.16
2023-01-26T02:26:02.854Z,2.28
2023-01-26T02:28:30.886Z,2.13
2023-01-26T02:30:58.445Z,2.21
2023-01-26T02:33:28.220Z,2.21
2023-01-26T02:35:55.669Z,2.39
2023-01-26T02:38:27.100Z,2.45
2023-01-26T02:40:57.538Z,2.55
2023-01-26T02:43:27.783Z,2.48
2023-01-26T02:45:55.353Z,2.46
2023-01-26T02:48:37.534Z,2.49
2023-01-26T02:51:05.980Z,2.55
2023-01-26T02:53:34.010Z,2.53
2023-01-26T02:56:00.332Z,2.59
2023-01-26T02:58:29.505Z,2.67
2023-01-26T03:00:57.098Z,2.64
2023-01-26T03:03:41.393Z,2.63
2023-01-26T03:06:10.354Z,2.64
2023-01-26T03:08:38.837Z,2.53
2023-01-26T03:11:07.596Z,2.47
2023-01-26T03:13:36.621Z,2.48
2023-01-26T03:16:08.465Z,2.52
2023-01-26T03:18:54.161Z,2.49
2023-01-26T03:21:39.078Z,2.53
2023-01-26T03:24:24.942Z,2.64
2023-01-26T03:27:09.886Z,2.60
2023-01-26T03:29:38.638Z,2.61
2023-01-26T03:32:06.118Z,2.46
2023-01-26T03:34:33.829Z,2.51
2023-01-26T03:37:01.397Z,2.32
2023-01-26T03:39:46.746Z,2.27
2023-01-26T03:42:32.114Z,2.43
2023-01-26T03:45:18.751Z,2.39
2023-01-26T03:48:04.152Z,2.35
2023-01-26T03:50:49.469Z,2.37
2023-01-26T03:53:37.055Z,2.34
2023-01-26T03:56:24.029Z,2.36
2023-01-26T03:58:52.973Z,2.20
2023-01-26T04:01:26.248Z,2.35
2023-01-26T04:04:12.976Z,2.29
2023-01-26T04:06:59.648Z,2.32
2023-01-26T04:09:27.312Z,2.15
2023-01-26T04:11:54.979Z,2.25
2023-01-26T04:14:50.004Z,2.26
2023-01-26T04:17:38.022Z,2.36
2023-01-26T04:20:24.978Z,2.19
2023-01-26T04:22:52.729Z,2.21
2023-01-26T04:25:22.615Z,2.29
2023-01-26T04:27:50.212Z,2.19
2023-01-26T04:30:18.992Z,2.20
2023-01-26T04:32:47.767Z,2.43
2023-01-26T04:35:15.358Z,2.15
2023-01-26T04:37:42.777Z,2.06
2023-01-26T04:40:11.738Z,2.20
2023-01-26T04:42:39.299Z,2.11
2023-01-26T04:45:07.467Z,2.02
2023-01-26T04:47:34.927Z,1.98
2023-01-26T04:50:03.926Z,1.96
2023-01-26T04:52:31.356Z,2.09
2023-01-26T04:54:58.775Z,2.06
2023-01-26T04:57:26.285Z,2.14
2023-01-26T04:59:54.243Z,1.89
2023-01-26T05:02:21.601Z,2.17
2023-01-26T05:04:49.337Z,2.27
2023-01-26T05:07:18.121Z,2.16
2023-01-26T05:09:45.553Z,2.08
2023-01-26T05:12:30.436Z,2.17
2023-01-26T05:14:57.899Z,2.11
2023-01-26T05:17:25.411Z,2.09
2023-01-26T05:19:53.176Z,2.14
2023-01-26T05:22:21.886Z,2.12
2023-01-26T05:24:49.302Z,2.12
2023-01-26T05:27:22.531Z,1.96
2023-01-26T05:29:50.356Z,2.03
2023-01-26T05:32:17.880Z,2.00
2023-01-26T05:34:45.361Z,1.97
2023-01-26T05:37:14.997Z,1.94
2023-01-26T05:39:44.200Z,1.93
2023-01-26T05:42:12.643Z,1.98
2023-01-26T05:44:40.277Z,1.95
2023-01-26T05:47:07.661Z,1.91
2023-01-26T05:49:35.225Z,1.86
2023-01-26T05:52:02.636Z,2.04
2023-01-26T05:54:29.992Z,2.06
2023-01-26T05:56:58.690Z,1.99
2023-01-26T05:59:26.041Z,2.01
2023-01-26T06:01:53.522Z,2.04
2023-01-26T06:04:21.302Z,2.06
2023-01-26T06:06:48.695Z,2.11
2023-01-26T06:09:16.434Z,2.02
2023-01-26T06:11:43.837Z,1.86
2023-01-26T06:14:12.564Z,1.97
2023-01-26T06:16:39.999Z,1.99
2023-01-26T06:19:07.998Z,1.98
2023-01-26T06:21:36.098Z,2.01
2023-01-26T06:24:04.262Z,2.01
2023-01-26T06:26:31.823Z,1.92
2023-01-26T06:28:59.463Z,1.79
2023-01-26T06:31:29.664Z,1.75
2023-01-26T06:33:57.415Z,1.83
2023-01-26T06:36:24.987Z,1.90
2023-01-26T06:38:55.567Z,1.88
2023-01-26T06:41:23.831Z,1.94
2023-01-26T06:43:51.258Z,1.77
2023-01-26T06:46:19.420Z,1.86
2023-01-26T06:48:48.247Z,1.96
2023-01-26T06:51:43.423Z,1.85
2023-01-26T06:54:12.309Z,1.77
2023-01-26T06:56:40.004Z,1.88
2023-01-26T06:59:09.716Z,1.81
2023-01-26T07:01:40.098Z,2.01
2023-01-26T07:04:09.240Z,2.16
2023-01-26T07:06:36.622Z,2.01
2023-01-26T07:09:04.507Z,2.03
2023-01-26T07:11:32.712Z,2.16
2023-01-26T07:14:00.674Z,2.28
2023-01-26T07:16:28.278Z,2.13
2023-01-26T07:18:55.996Z,2.10
2023-01-26T07:21:24.906Z,2.14
2023-01-26T07:23:53.231Z,2.07
2023-01-26T07:26:21.961Z,2.10
2023-01-26T07:28:49.769Z,1.92
2023-01-26T07:31:17.321Z,1.99
2023-01-26T07:33:44.792Z,1.93
2023-01-26T07:36:12.189Z,1.95
2023-01-26T07:38:40.979Z,1.98
2023-01-26T07:41:10.893Z,2.01
2023-01-26T07:43:39.211Z,1.98
2023-01-26T07:46:07.312Z,1.93
2023-01-26T07:48:34.769Z,1.95
2023-01-26T07:51:03.901Z,1.97
2023-01-26T07:53:34.075Z,1.82
2023-01-26T07:56:11.525Z,1.97
2023-01-26T07:58:39.250Z,2.03
2023-01-26T08:01:12.104Z,2.06
2023-01-26T08:03:39.766Z,2.08
2023-01-26T08:06:11.682Z,1.96
2023-01-26T08:08:41.140Z,2.06
2023-01-26T08:11:11.548Z,2.02
2023-01-26T08:13:39.644Z,2.19
2023-01-26T08:16:11.982Z,2.27
2023-01-26T08:18:39.746Z,2.42
2023-01-26T08:21:07.194Z,2.26
2023-01-26T08:23:34.690Z,2.20
2023-01-26T08:26:02.376Z,2.02
2023-01-26T08:28:31.415Z,2.13
2023-01-26T08:31:04.748Z,2.05
2023-01-26T08:33:33.169Z,2.24
2023-01-26T08:36:02.773Z,2.10
2023-01-26T08:38:32.079Z,2.01
2023-01-26T08:40:59.611Z,2.02
2023-01-26T08:43:27.267Z,2.13
2023-01-26T08:45:56.389Z,2.15
2023-01-26T08:48:23.861Z,2.21
2023-01-26T08:50:55.278Z,2.26
2023-01-26T08:53:23.006Z,2.14
2023-01-26T08:55:50.467Z,2.07
2023-01-26T08:58:18.691Z,2.16
2023-01-26T09:00:46.140Z,2.24
2023-01-26T09:03:14.891Z,2.16
2023-01-26T09:05:42.353Z,2.39
2023-01-26T09:08:13.813Z,2.25
2023-01-26T09:10:42.527Z,2.16
2023-01-26T09:13:10.327Z,2.09
2023-01-26T09:15:38.936Z,2.26
2023-01-26T09:18:06.875Z,2.35
2023-01-26T09:20:35.641Z,2.23
2023-01-26T09:23:03.086Z,2.16
2023-01-26T09:25:30.739Z,2.03
2023-01-26T09:27:58.413Z,1.85
2023-01-26T09:30:26.094Z,1.73
2023-01-26T09:32:53.802Z,1.88
2023-01-26T09:35:21.186Z,1.83
2023-01-26T09:37:49.911Z,1.79
2023-01-26T09:40:21.006Z,1.80
2023-01-26T09:43:01.705Z,1.90
2023-01-26T09:45:36.684Z,1.75
2023-01-26T09:48:13.175Z,1.88
2023-01-26T09:50:47.354Z,1.80
2023-01-26T09:53:21.162Z,1.77
2023-01-26T09:55:49.807Z,1.74
2023-01-26T09:58:22.954Z,1.49
2023-01-26T10:00:53.665Z,1.56
2023-01-26T10:03:29.867Z,1.62
2023-01-26T10:06:06.425Z,1.79
2023-01-26T10:08:35.303Z,1.63
2023-01-26T10:11:06.094Z,1.75
2023-01-26T10:13:35.029Z,1.77
2023-01-26T10:16:07.519Z,1.83
2023-01-26T10:18:41.865Z,1.78
2023-01-26T10:21:12.047Z,1.76
2023-01-26T10:23:48.124Z,1.78
2023-01-26T10:26:18.460Z,1.87
2023-01-26T10:28:47.406Z,1.77
2023-01-26T10:31:17.897Z,1.80
2023-01-26T10:33:52.461Z,1.78
2023-01-26T10:36:20.090Z,1.74
2023-01-26T10:38:51.062Z,1.78
2023-01-26T10:41:25.566Z,1.73
2023-01-26T10:43:55.287Z,1.85
2023-01-26T10:46:26.199Z,1.92
2023-01-26T10:48:54.820Z,1.97
2023-01-26T10:51:26.887Z,1.89
2023-01-26T10:54:29.047Z,1.84
2023-01-26T10:56:58.901Z,1.75
2023-01-26T10:59:30.872Z,1.88
2023-01-26T11:02:01.914Z,1.77
2023-01-26T11:04:29.894Z,1.77
2023-01-26T11:07:24.808Z,1.98
2023-01-26T11:09:53.625Z,1.85
2023-01-26T11:12:22.997Z,2.06
2023-01-26T11:15:03.966Z,1.91
2023-01-26T11:17:38.163Z,1.94
2023-01-26T11:20:28.134Z,1.83
2023-01-26T11:23:02.590Z,1.69
2023-01-26T11:25:37.366Z,1.69
2023-01-26T11:28:27.765Z,1.90
2023-01-26T11:31:11.850Z,1.86
2023-01-26T11:33:48.042Z,1.78
2023-01-26T11:36:25.744Z,1.98
2023-01-26T11:39:02.865Z,2.00
2023-01-26T11:41:45.752Z,2.13
2023-01-26T11:44:40.639Z,2.13
2023-01-26T11:47:23.295Z,2.04
2023-01-26T11:50:07.313Z,2.19
2023-01-26T11:52:42.770Z,1.87
2023-01-26T11:55:26.614Z,1.92
2023-01-26T11:58:06.224Z,2.06
2023-01-26T12:00:41.143Z,2.06
2023-01-26T12:03:20.494Z,2.17
2023-01-26T12:05:51.122Z,1.98
2023-01-26T12:08:23.806Z,1.97
2023-01-26T12:11:21.204Z,1.95
2023-01-26T12:13:57.684Z,2.00
2023-01-26T12:16:33.951Z,2.01
2023-01-26T12:19:11.513Z,1.81
2023-01-26T12:21:43.554Z,2.02
2023-01-26T12:24:43.427Z,1.96
2023-01-26T12:27:06.952Z,1.93
2023-01-26T12:29:43.607Z,2.03
2023-01-26T12:32:14.066Z,1.93
2023-01-26T12:34:41.916Z,2.04
2023-01-26T12:37:27.201Z,1.83
2023-01-26T12:40:06.173Z,1.87
2023-01-26T12:42:43.383Z,1.90
2023-01-26T12:45:18.402Z,1.88
2023-01-26T12:47:50.947Z,2.02
2023-01-26T12:50:27.525Z,2.08
2023-01-26T12:52:58.701Z,2.01
2023-01-26T12:55:30.150Z,1.87
2023-01-26T12:58:01.720Z,2.11
2023-01-26T13:00:34.378Z,1.97
2023-01-26T13:03:07.902Z,1.97
2023-01-26T13:05:37.124Z,1.97
2023-01-26T13:08:51.324Z,2.07
2023-01-26T13:11:44.763Z,1.92
2023-01-26T13:14:26.646Z,2.04
2023-01-26T13:16:55.882Z,1.90
2023-01-26T13:19:37.278Z,2.04
2023-01-26T13:22:04.642Z,1.78
2023-01-26T13:24:46.800Z,1.58
2023-01-26T13:27:31.928Z,1.72
2023-01-26T13:30:00.082Z,1.73
2023-01-26T13:33:05.995Z,1.59
2023-01-26T13:35:35.971Z,1.75
2023-01-26T13:38:12.670Z,1.62
2023-01-26T13:40:44.727Z,1.95
2023-01-26T13:43:26.663Z,1.99
2023-01-26T13:46:04.949Z,1.81
2023-01-26T13:48:44.945Z,1.79
2023-01-26T13:51:18.709Z,1.73
2023-01-26T13:53:50.805Z,1.67
2023-01-26T13:56:24.261Z,1.60
2023-01-26T13:58:52.086Z,1.60
2023-01-26T14:01:20.858Z,1.71
2023-01-26T14:03:49.629Z,1.75
2023-01-26T14:06:20.814Z,1.62
2023-01-26T14:08:53.152Z,1.53
2023-01-26T14:11:23.596Z,1.50
2023-01-26T14:13:55.888Z,1.64
2023-01-26T14:16:35.621Z,1.62
2023-01-26T14:19:16.129Z,1.37
2023-01-26T14:21:48.760Z,1.65
2023-01-26T14:24:16.445Z,1.51
2023-01-26T14:26:44.556Z,1.44
2023-01-26T14:29:13.572Z,1.55
2023-01-26T14:31:41.298Z,1.44
2023-01-26T14:34:11.894Z,1.39
2023-01-26T14:36:40.032Z,1.25
2023-01-26T14:39:17.980Z,1.23
2023-01-26T14:41:46.561Z,1.38
2023-01-26T14:44:14.791Z,1.37
2023-01-26T14:46:54.287Z,1.38
2023-01-26T14:49:28.569Z,1.37
2023-01-26T14:51:57.926Z,1.46
2023-01-26T14:54:29.162Z,1.42
2023-01-26T14:56:57.532Z,1.44
2023-01-26T14:59:29.559Z,1.72
2023-01-26T15:02:05.467Z,1.44
2023-01-26T15:04:39.309Z,1.59
2023-01-26T15:07:35.237Z,1.69
2023-01-26T15:10:03.129Z,1.74
2023-01-26T15:12:33.883Z,1.61
2023-01-26T15:15:02.491Z,1.65
2023-01-26T15:17:32.000Z,1.76
2023-01-26T15:20:00.734Z,1.61
2023-01-26T15:22:28.340Z,1.54
2023-01-26T15:25:06.414Z,1.44
2023-01-26T15:27:37.583Z,1.41
2023-01-26T15:30:07.885Z,1.37
2023-01-26T15:32:40.854Z,1.50
2023-01-26T15:35:19.696Z,1.36
2023-01-26T15:37:47.106Z,1.57
2023-01-26T15:40:15.541Z,1.48
2023-01-26T15:42:43.400Z,1.42
2023-01-26T15:45:24.395Z,1.41
2023-01-26T15:47:51.823Z,1.50
2023-01-26T15:50:27.849Z,1.37
2023-01-26T15:52:55.848Z,1.31
2023-01-26T15:55:27.303Z,1.38
2023-01-26T15:57:54.702Z,1.32
2023-01-26T16:00:23.467Z,1.14
2023-01-26T16:02:51.620Z,1.24
2023-01-26T16:05:22.459Z,1.23
2023-01-26T16:07:50.962Z,1.39
2023-01-26T16:10:18.993Z,1.33
2023-01-26T16:12:46.963Z,1.00
2023-01-26T16:15:26.377Z,1.06
2023-01-26T16:17:53.763Z,1.21
2023-01-26T16:20:22.511Z,1.14
2023-01-26T16:22:49.875Z,1.12
2023-01-26T16:25:23.954Z,1.00
2023-01-26T16:27:51.465Z,1.03
2023-01-26T16:30:19.108Z,1.17
2023-01-26T16:32:46.514Z,1.03
2023-01-26T16:35:15.719Z,0.93
2023-01-26T16:37:44.953Z,1.08
2023-01-26T16:40:16.424Z,0.99
2023-01-26T16:42:47.339Z,1.20
2023-01-26T16:45:17.134Z,1.15
2023-01-26T16:47:44.858Z,1.33
2023-01-26T16:50:12.783Z,1.18
2023-01-26T16:52:41.969Z,1.31
2023-01-26T16:55:14.300Z,1.06
2023-01-26T16:57:42.409Z,1.16
2023-01-26T17:00:13.806Z,1.25
2023-01-26T17:02:42.864Z,1.38
2023-01-26T17:05:15.066Z,1.31
2023-01-26T17:07:42.518Z,1.14
2023-01-26T17:10:13.478Z,1.42
2023-01-26T17:12:41.126Z,1.61
2023-01-26T17:15:11.605Z,1.57
2023-01-26T17:17:39.169Z,1.36
2023-01-26T17:20:18.434Z,1.07
2023-01-26T17:22:46.983Z,0.99
2023-01-26T17:25:17.240Z,1.26
2023-01-26T17:27:45.206Z,1.05
2023-01-26T17:30:13.269Z,1.13
2023-01-26T17:32:42.468Z,0.83
2023-01-26T17:35:10.550Z,0.84
2023-01-26T17:37:39.321Z,1.08
2023-01-26T17:40:09.065Z,1.09
2023-01-26T17:42:37.901Z,1.11
2023-01-26T17:45:09.190Z,1.14
2023-01-26T17:47:38.621Z,1.24
2023-01-26T17:50:06.956Z,1.02
2023-01-26T17:52:36.465Z,1.36
2023-01-26T17:55:06.190Z,1.12
2023-01-26T17:57:34.027Z,1.00
2023-01-26T18:00:02.966Z,0.77
2023-01-26T18:02:30.500Z,0.77
2023-01-26T18:04:57.977Z,0.80
2023-01-26T18:07:25.585Z,1.18
2023-01-26T18:09:52.971Z,1.01
2023-01-26T18:12:20.394Z,1.09
2023-01-26T18:14:48.393Z,1.15
2023-01-26T18:17:17.239Z,1.15
2023-01-26T18:19:44.833Z,1.08
2023-01-26T18:22:12.295Z,1.01
2023-01-26T18:24:39.666Z,0.96
2023-01-26T18:27:07.534Z,0.87
2023-01-26T18:29:34.831Z,0.84
2023-01-26T18:32:02.307Z,0.84
2023-01-26T18:34:31.069Z,1.11
2023-01-26T18:36:58.754Z,0.96
2023-01-26T18:39:27.632Z,1.24
2023-01-26T18:41:55.010Z,0.83
2023-01-26T18:44:22.671Z,0.78
2023-01-26T18:46:50.049Z,0.87
2023-01-26T18:49:17.688Z,0.87
2023-01-26T18:51:48.164Z,0.73
2023-01-26T18:54:16.436Z,0.65
2023-01-26T18:56:43.968Z,0.72
2023-01-26T18:59:12.540Z,1.00
2023-01-26T19:01:40.617Z,1.04
2023-01-26T19:04:08.160Z,1.03
2023-01-26T19:06:36.405Z,1.14
2023-01-26T19:09:07.032Z,0.89
2023-01-26T19:11:36.696Z,0.95
2023-01-26T19:14:06.092Z,0.82
2023-01-26T19:16:33.937Z,0.80
2023-01-26T19:19:01.678Z,0.58
2023-01-26T19:21:31.305Z,0.38
2023-01-26T19:24:02.442Z,0.57
2023-01-26T19:26:31.396Z,0.71
2023-01-26T19:29:00.029Z,0.51
2023-01-26T19:31:28.400Z,0.56
2023-01-26T19:33:57.240Z,0.47
2023-01-26T19:36:25.533Z,0.44
2023-01-26T19:38:53.004Z,0.53
2023-01-26T19:41:22.027Z,0.50
2023-01-26T19:43:51.163Z,0.42
2023-01-26T19:46:19.449Z,0.38
2023-01-26T19:48:47.003Z,0.44
2023-01-26T19:51:16.090Z,0.44
2023-01-26T19:53:45.998Z,0.58
2023-01-26T19:56:16.612Z,0.87
2023-01-26T19:58:44.729Z,0.72
2023-01-26T20:01:13.715Z,0.66
2023-01-26T20:03:41.205Z,0.54
2023-01-26T20:06:16.065Z,0.68
2023-01-26T20:08:43.634Z,0.73
2023-01-26T20:11:11.763Z,0.69
2023-01-26T20:13:40.043Z,0.62
2023-01-26T20:16:08.186Z,0.69
2023-01-26T20:18:38.036Z,0.81
2023-01-26T20:21:07.188Z,0.63
2023-01-26T20:23:36.583Z,0.65
2023-01-26T20:26:08.669Z,0.57
2023-01-26T20:28:36.579Z,0.47
2023-01-26T20:31:04.600Z,0.49
2023-01-26T20:33:32.356Z,0.56
2023-01-26T20:36:01.335Z,0.50
2023-01-26T20:38:28.728Z,0.75
2023-01-26T20:40:56.097Z,0.76
2023-01-26T20:43:23.487Z,0.60
2023-01-26T20:45:50.906Z,0.47
2023-01-26T20:48:18.395Z,0.61
2023-01-26T20:50:45.797Z,0.65
2023-01-26T20:53:14.517Z,0.66
2023-01-26T20:55:42.354Z,0.68
2023-01-26T20:58:09.881Z,0.72
2023-01-26T21:00:39.146Z,0.59
2023-01-26T21:03:06.560Z,0.56
2023-01-26T21:05:33.905Z,0.47
2023-01-26T21:08:01.397Z,0.72
2023-01-26T21:10:30.108Z,0.63
2023-01-26T21:12:57.504Z,0.66
2023-01-26T21:15:24.849Z,0.59
2023-01-26T21:17:52.282Z,0.65
2023-01-26T21:20:20.157Z,0.57
2023-01-26T21:22:47.879Z,0.79
2023-01-26T21:25:15.409Z,0.52
2023-01-26T21:27:44.121Z,0.75
2023-01-26T21:30:13.164Z,0.86
2023-01-26T21:32:40.640Z,0.76
2023-01-26T21:35:08.786Z,0.93
2023-01-26T21:37:36.180Z,0.66
2023-01-26T21:40:04.143Z,0.58
2023-01-26T21:42:31.449Z,0.68
2023-01-26T21:45:17.653Z,0.68
2023-01-26T21:48:05.502Z,0.51
2023-01-26T21:50:46.864Z,0.63
2023-01-26T21:53:14.289Z,0.62
2023-01-26T21:55:42.180Z,0.64
2023-01-26T21:58:27.512Z,0.51
2023-01-26T22:01:05.880Z,0.34
2023-01-26T22:03:33.368Z,0.41
2023-01-26T22:06:04.178Z,0.34
2023-01-26T22:08:32.898Z,0.27
2023-01-26T22:11:00.268Z,0.35
2023-01-26T22:13:28.298Z,0.25
2023-01-26T22:16:01.933Z,0.28
2023-01-26T22:18:31.069Z,0.33
2023-01-26T22:20:58.452Z,0.47
2023-01-26T22:23:25.889Z,0.61
2023-01-26T22:25:53.279Z,0.34
2023-01-26T22:28:20.760Z,0.47
2023-01-26T22:30:48.300Z,0.52
2023-01-26T22:33:17.063Z,0.35
2023-01-26T22:35:44.432Z,0.30
2023-01-26T22:38:11.911Z,0.54
2023-01-26T22:40:39.380Z,0.36
2023-01-26T22:43:08.619Z,0.21
2023-01-26T22:45:36.097Z,0.32
2023-01-26T22:48:03.684Z,0.36
2023-01-26T22:50:32.387Z,0.48
2023-01-26T22:52:59.766Z,0.41
2023-01-26T22:55:27.121Z,0.40
2023-01-26T22:57:54.776Z,0.35
2023-01-26T23:00:22.283Z,0.17
2023-01-26T23:02:49.702Z,0.38
2023-01-26T23:05:18.035Z,0.24
2023-01-26T23:07:46.754Z,0.33
2023-01-26T23:10:14.414Z,0.27
2023-01-26T23:12:41.904Z,0.15
2023-01-26T23:15:10.294Z,0.13
2023-01-26T23:17:37.654Z,0.35
2023-01-26T23:20:05.730Z,0.48
2023-01-26T23:22:33.128Z,0.26
2023-01-26T23:25:19.393Z,0.26
2023-01-26T23:27:46.778Z,0.16
2023-01-26T23:30:15.038Z,0.13
2023-01-26T23:32:42.542Z,0.24
2023-01-26T23:35:10.392Z,0.17
2023-01-26T23:37:37.643Z,0.26
2023-01-26T23:40:07.984Z,0.15
2023-01-26T23:42:45.210Z,0.20
2023-01-26T23:45:22.695Z,0.22
2023-01-26T23:47:50.082Z,0.33
2023-01-26T23:50:17.799Z,0.30
2023-01-26T23:52:45.324Z,0.29
2023-01-26T23:55:14.486Z,0.40
2023-01-26T23:57:41.844Z,0.32
